createdAt,value
2022-09-13T00:02:02.436Z,9.80
2022-09-13T00:07:12.016Z,11.70
2022-09-13T00:12:23.215Z,10.70
2022-09-13T00:17:34.403Z,10.70
2022-09-13T00:22:42.119Z,9.50
2022-09-13T00:27:49.990Z,11.00
2022-09-13T00:32:57.228Z,10.40
2022-09-13T00:38:10.892Z,10.10
2022-09-13T00:49:05.981Z,10.00
2022-09-13T00:54:21.876Z,11.60
2022-09-13T00:59:44.944Z,12.50
2022-09-13T01:04:53.382Z,11.20
2022-09-13T01:10:01.243Z,10.70
2022-09-13T01:15:13.718Z,12.90
2022-09-13T01:20:29.721Z,10.60
2022-09-13T01:26:17.409Z,11.50
2022-09-13T01:31:33.929Z,11.80
2022-09-13T01:37:14.171Z,11.00
2022-09-13T01:42:40.763Z,11.30
2022-09-13T01:48:18.105Z,12.00
2022-09-13T01:53:51.504Z,11.50
2022-09-13T01:59:09.862Z,12.10
2022-09-13T02:04:26.226Z,11.20
2022-09-13T02:09:46.985Z,12.10
2022-09-13T02:15:06.165Z,12.10
2022-09-13T02:20:30.659Z,11.90
2022-09-13T02:25:42.372Z,12.20
2022-09-13T02:31:02.521Z,11.60
2022-09-13T02:36:15.912Z,11.70
2022-09-13T02:41:42.248Z,12.60
2022-09-13T02:52:39.587Z,13.60
2022-09-13T02:58:06.883Z,13.50
2022-09-13T03:03:22.868Z,14.00
2022-09-13T03:08:38.540Z,14.60
2022-09-13T03:14:09.900Z,14.30
2022-09-13T03:19:36.394Z,13.40
2022-09-13T03:25:05.087Z,15.70
2022-09-13T03:30:19.340Z,15.70
2022-09-13T03:35:39.653Z,15.90
2022-09-13T03:41:03.436Z,15.90
2022-09-13T03:46:19.745Z,15.10
2022-09-13T03:51:28.380Z,14.90
2022-09-13T03:56:37.119Z,15.90
2022-09-13T04:01:49.882Z,16.40
2022-09-13T04:07:04.934Z,17.00
2022-09-13T04:12:16.074Z,15.40
2022-09-13T04:17:30.146Z,16.20
2022-09-13T04:22:39.747Z,15.80
2022-09-13T04:27:52.271Z,16.00
2022-09-13T04:33:05.401Z,12.40
2022-09-13T04:38:13.055Z,18.10
2022-09-13T04:43:21.706Z,15.80
2022-09-13T04:48:38.400Z,16.80
2022-09-13T04:53:49.084Z,15.50
2022-09-13T04:58:58.248Z,15.20
2022-09-13T05:04:07.054Z,15.60
2022-09-13T05:09:17.370Z,18.00
2022-09-13T05:14:29.385Z,14.00
2022-09-13T05:19:37.560Z,15.10
2022-09-13T05:24:46.448Z,14.80
2022-09-13T05:29:54.371Z,14.10
2022-09-13T05:35:02.701Z,15.40
2022-09-13T05:40:12.918Z,13.50
2022-09-13T05:45:21.199Z,15.10
2022-09-13T05:50:56.667Z,9.60
2022-09-13T05:55:58.263Z,14.80
2022-09-13T06:01:06.604Z,12.30
2022-09-13T06:06:20.660Z,10.40
2022-09-13T06:11:29.204Z,16.00
2022-09-13T06:21:59.974Z,11.70
2022-09-13T06:27:11.732Z,14.70
2022-09-13T06:32:20.283Z,15.40
2022-09-13T06:37:28.344Z,14.00
2022-09-13T06:42:43.985Z,13.50
2022-09-13T06:47:55.485Z,12.30
2022-09-13T06:53:13.642Z,12.50
2022-09-13T06:58:22.835Z,12.50
2022-09-13T07:03:30.763Z,11.00
2022-09-13T07:08:39.192Z,11.80
2022-09-13T07:13:51.969Z,11.20
2022-09-13T07:19:29.523Z,11.00
2022-09-13T07:24:51.248Z,11.80
2022-09-13T07:30:11.134Z,10.60
2022-09-13T07:35:19.270Z,11.10
2022-09-13T07:40:45.712Z,11.90
2022-09-13T07:51:24.268Z,10.20
2022-09-13T07:56:36.945Z,12.00
2022-09-13T08:01:54.607Z,11.50
2022-09-13T08:07:13.199Z,7.30
2022-09-13T08:12:30.423Z,11.30
2022-09-13T08:35:03.808Z,8.60
2022-09-13T08:40:23.205Z,8.60
2022-09-13T08:45:38.193Z,4.10
2022-09-13T08:50:47.294Z,8.40
2022-09-13T09:03:08.798Z,6.20
2022-09-13T09:09:39.916Z,6.90
2022-09-13T09:15:09.888Z,6.10
2022-09-13T09:20:53.219Z,6.10
2022-09-13T09:26:26.764Z,4.30
2022-09-13T09:31:54.386Z,5.10
2022-09-13T09:37:14.075Z,4.30
2022-09-13T09:42:25.753Z,3.60
2022-09-13T09:47:56.320Z,4.50
2022-09-13T09:58:46.690Z,3.70
2022-09-13T10:04:09.038Z,4.50
2022-09-13T10:09:33.669Z,4.00
2022-09-13T10:14:55.017Z,3.50
2022-09-13T10:20:31.999Z,4.20
2022-09-13T10:26:23.714Z,4.00
2022-09-13T10:31:54.099Z,3.80
2022-09-13T10:37:34.917Z,3.80
2022-09-13T10:42:51.892Z,4.10
2022-09-13T10:48:08.100Z,4.00
2022-09-13T10:53:39.826Z,4.10
2022-09-13T10:58:51.056Z,4.80
2022-09-13T11:04:54.137Z,4.00
2022-09-13T11:10:09.629Z,3.80
2022-09-13T11:15:43.769Z,4.30
2022-09-13T11:21:06.145Z,4.00
2022-09-13T11:26:36.055Z,3.90
2022-09-13T11:32:00.575Z,3.60
2022-09-13T11:37:18.153Z,3.40
2022-09-13T11:42:44.565Z,2.90
2022-09-13T11:48:17.336Z,3.10
2022-09-13T11:54:00.920Z,3.20
2022-09-13T11:59:23.007Z,3.30
2022-09-13T12:04:36.707Z,3.10
2022-09-13T12:09:55.155Z,3.40
2022-09-13T12:15:08.185Z,3.10
2022-09-13T12:20:22.212Z,3.80
2022-09-13T12:25:39.145Z,3.10
2022-09-13T12:30:53.563Z,3.40
2022-09-13T12:36:25.906Z,3.30
2022-09-13T12:41:53.380Z,3.50
2022-09-13T12:47:31.786Z,2.90
2022-09-13T12:52:47.996Z,2.40
2022-09-13T12:58:05.663Z,2.80
2022-09-13T13:03:20.388Z,2.60
2022-09-13T13:08:31.519Z,2.90
2022-09-13T13:13:40.888Z,3.10
2022-09-13T13:18:49.866Z,3.00
2022-09-13T13:24:36.900Z,3.20
2022-09-13T13:29:44.264Z,2.90
2022-09-13T13:34:52.364Z,2.60
2022-09-13T13:40:22.132Z,3.10
2022-09-13T13:45:31.877Z,3.40
2022-09-13T13:50:52.812Z,3.80
2022-09-13T13:56:18.899Z,3.30
2022-09-13T14:01:30.606Z,3.80
2022-09-13T14:06:49.397Z,3.80
2022-09-13T14:12:20.424Z,3.70
2022-09-13T14:17:55.147Z,3.80
2022-09-13T14:23:25.339Z,3.00
2022-09-13T14:28:36.422Z,4.20
2022-09-13T14:33:47.880Z,4.50
2022-09-13T14:39:02.491Z,3.70
2022-09-13T14:44:28.418Z,4.10
2022-09-13T14:49:44.422Z,4.30
2022-09-13T14:54:57.943Z,4.30
2022-09-13T15:00:21.648Z,4.60
2022-09-13T15:05:35.052Z,4.30
2022-09-13T15:10:47.605Z,4.20
2022-09-13T15:15:57.315Z,4.50
2022-09-13T15:21:09.870Z,4.30
2022-09-13T15:26:25.684Z,4.20
2022-09-13T15:31:35.684Z,4.20
2022-09-13T15:36:42.744Z,4.60
2022-09-13T15:41:57.418Z,4.40
2022-09-13T15:47:09.650Z,4.60
2022-09-13T15:52:17.796Z,4.70
2022-09-13T15:57:29.394Z,4.50
2022-09-13T16:02:36.895Z,4.70
2022-09-13T16:07:44.265Z,4.40
2022-09-13T16:12:51.915Z,5.40
2022-09-13T16:17:59.796Z,5.10
2022-09-13T16:23:07.489Z,5.00
2022-09-13T16:28:22.218Z,5.20
2022-09-13T16:33:31.693Z,5.10
2022-09-13T16:38:39.753Z,4.60
2022-09-13T16:43:49.970Z,5.40
2022-09-13T16:49:01.755Z,4.50
2022-09-13T16:54:13.659Z,5.20
2022-09-13T16:59:32.163Z,5.20
2022-09-13T17:04:40.750Z,5.00
2022-09-13T17:09:50.197Z,5.70
2022-09-13T17:15:02.274Z,6.80
2022-09-13T17:20:13.985Z,6.10
2022-09-13T17:25:22.507Z,5.70
2022-09-13T17:30:29.876Z,5.50
2022-09-13T17:35:38.863Z,6.40
2022-09-13T17:40:48.490Z,5.90
2022-09-13T17:45:56.483Z,5.80
2022-09-13T17:51:08.689Z,5.70
2022-09-13T17:56:20.509Z,6.60
2022-09-13T18:01:28.012Z,6.50
2022-09-13T18:06:42.310Z,7.30
2022-09-13T18:11:51.143Z,6.90
2022-09-13T18:17:00.452Z,6.70
2022-09-13T18:22:10.094Z,6.60
2022-09-13T18:27:25.376Z,7.20
2022-09-13T18:32:32.812Z,7.40
2022-09-13T18:37:40.951Z,7.70
2022-09-13T18:42:48.855Z,6.80
2022-09-13T18:47:56.260Z,7.00
2022-09-13T18:53:04.800Z,7.40
2022-09-13T18:58:13.767Z,6.80
2022-09-13T19:03:23.143Z,6.50
2022-09-13T19:08:32.341Z,6.70
2022-09-13T19:13:40.913Z,6.60
2022-09-13T19:18:52.827Z,7.40
2022-09-13T19:24:09.193Z,6.50
2022-09-13T19:29:21.063Z,6.80
2022-09-13T19:34:31.670Z,6.80
2022-09-13T19:39:42.976Z,6.50
2022-09-13T19:44:54.997Z,7.50
2022-09-13T19:50:03.386Z,6.10
2022-09-13T19:55:15.324Z,6.20
2022-09-13T20:00:33.477Z,6.30
2022-09-13T20:06:01.194Z,6.10
2022-09-13T20:11:22.275Z,7.70
2022-09-13T20:16:35.042Z,6.70
2022-09-13T20:21:43.684Z,5.60
2022-09-13T20:26:52.623Z,7.00
2022-09-13T20:32:03.067Z,6.40
2022-09-13T20:37:16.499Z,6.50
2022-09-13T20:42:27.146Z,7.40
2022-09-13T20:47:36.733Z,7.20
2022-09-13T20:52:48.601Z,7.60
2022-09-13T20:58:01.996Z,8.00
2022-09-13T21:03:11.610Z,7.20
2022-09-13T21:08:38.948Z,7.60
2022-09-13T21:13:49.014Z,7.20
2022-09-13T21:19:00.060Z,6.20
2022-09-13T21:24:10.549Z,7.10
2022-09-13T21:29:18.465Z,7.40
2022-09-13T21:34:27.593Z,7.80
2022-09-13T21:39:35.921Z,7.60
2022-09-13T21:44:43.555Z,7.50
2022-09-13T21:49:52.078Z,6.70
2022-09-13T21:55:08.284Z,7.00
2022-09-13T22:00:20.309Z,7.60
2022-09-13T22:05:34.217Z,7.40
2022-09-13T22:10:44.900Z,7.60
2022-09-13T22:15:55.682Z,7.50
2022-09-13T22:21:08.368Z,7.20
2022-09-13T22:26:19.151Z,7.40
2022-09-13T22:31:29.270Z,7.60
2022-09-13T22:36:37.398Z,8.80
2022-09-13T22:41:48.302Z,8.70
2022-09-13T22:46:55.994Z,8.20
2022-09-13T22:52:04.887Z,8.60
2022-09-13T22:57:12.859Z,10.10
2022-09-13T23:02:21.347Z,9.90
2022-09-13T23:07:31.424Z,9.20
2022-09-13T23:12:40.053Z,9.70
2022-09-13T23:17:48.581Z,9.00
2022-09-13T23:22:58.059Z,9.60
2022-09-13T23:28:06.987Z,10.60
2022-09-13T23:33:21.153Z,10.50
2022-09-13T23:38:33.016Z,10.40
2022-09-13T23:43:43.505Z,10.40
2022-09-13T23:48:52.069Z,9.90
2022-09-13T23:54:01.717Z,9.80
2022-09-13T23:59:10.586Z,10.50
